Time;durP1;ratioP1;P1;durP2;ratioP2;P2;SDS_P1;SDS_P2;PMS_P1;PMS_P2;Temp;Humidity;BMP_temperature;BMP_pressure;BME280_temperature;BME280_humidity;BME280_pressure;Samples;Min_cycle;Max_cycle;Signal;HPM_P1;HPM_P2
2022/02/28 00:04:48;;;;;;;22.40;11.80;;;;;;;2.50;57.36;100548.14;231288;1227;138908;-66
2022/02/28 00:09:51;;;;;;;24.80;11.90;;;;;;;2.50;57.41;100550.75;231376;1228;139364;-64
2022/02/28 00:14:54;;;;;;;24.30;12.70;;;;;;;2.51;57.35;100550.05;231273;1228;141688;-64
2022/02/28 00:19:57;;;;;;;23.20;13.10;;;;;;;2.52;57.46;100548.29;231207;1228;142331;-63
2022/02/28 00:25:02;;;;;;;26.50;13.70;;;;;;;2.53;57.23;100540.75;231216;1225;139320;-64
2022/02/28 00:30:08;;;;;;;144.70;73.80;;;;;;;2.52;57.37;100537.43;231266;1228;139404;-65
2022/02/28 00:35:11;;;;;;;35.20;17.20;;;;;;;2.63;57.61;100534.77;231422;1228;139290;-64
2022/02/28 00:40:14;;;;;;;27.70;14.20;;;;;;;2.62;57.10;100529.86;231297;1228;139414;-65
2022/02/28 00:45:17;;;;;;;28.30;12.80;;;;;;;2.56;56.94;100530.41;231492;1227;139073;-70
2022/02/28 00:50:20;;;;;;;21.40;12.00;;;;;;;2.51;56.78;100525.19;231298;1228;139518;-68
2022/02/28 00:55:23;;;;;;;22.50;12.10;;;;;;;2.47;56.72;100524.50;231292;1229;139714;-69
2022/02/28 01:00:26;;;;;;;25.10;12.70;;;;;;;2.39;56.54;100519.29;231403;1227;139022;-63
2022/02/28 01:05:31;;;;;;;23.40;11.90;;;;;;;2.35;56.76;100521.05;231379;1228;138982;-63
2022/02/28 01:10:34;;;;;;;22.00;12.80;;;;;;;2.32;56.54;100516.52;231393;1228;140796;-65
2022/02/28 01:15:38;;;;;;;21.70;12.50;;;;;;;2.30;56.75;100509.52;231436;1228;139543;-62
2022/02/28 01:20:41;;;;;;;23.10;12.70;;;;;;;2.29;56.56;100503.05;231282;1228;138847;-63
2022/02/28 01:25:45;;;;;;;26.00;13.30;;;;;;;2.28;56.84;100503.94;231338;1229;139268;-64
2022/02/28 01:30:48;;;;;;;22.70;12.90;;;;;;;2.24;56.77;100501.48;231329;1228;139551;-63
2022/02/28 01:35:51;;;;;;;23.50;13.40;;;;;;;2.20;56.77;100501.34;231417;1227;139248;-62
2022/02/28 01:40:54;;;;;;;25.60;13.10;;;;;;;2.18;56.62;100498.90;231339;1228;139226;-65
2022/02/28 01:45:57;;;;;;;21.80;12.30;;;;;;;2.12;56.56;100492.27;231439;1227;139107;-62
2022/02/28 01:51:00;;;;;;;24.30;13.10;;;;;;;2.05;56.74;100494.73;231536;1227;139239;-64
2022/02/28 01:56:04;;;;;;;24.80;13.30;;;;;;;2.00;56.48;100494.77;231455;1228;139313;-65
2022/02/28 02:01:08;;;;;;;24.10;12.60;;;;;;;1.96;56.68;100491.80;231345;1228;139755;-67
2022/02/28 02:06:13;;;;;;;22.60;12.80;;;;;;;1.96;56.95;100487.08;231317;1227;138941;-64
2022/02/28 02:11:18;;;;;;;24.90;13.00;;;;;;;1.94;56.80;100498.81;231290;1228;139229;-63
2022/02/28 02:16:21;;;;;;;22.70;12.10;;;;;;;1.92;57.04;100498.48;231294;1227;139124;-67
2022/02/28 02:21:24;;;;;;;25.50;12.10;;;;;;;1.89;56.99;100494.46;231491;1228;139295;-66
2022/02/28 02:26:28;;;;;;;20.90;11.80;;;;;;;1.89;57.09;100487.45;231295;1228;139197;-63
2022/02/28 02:31:31;;;;;;;22.80;11.40;;;;;;;1.92;57.16;100478.00;231367;1228;139151;-64
2022/02/28 02:36:35;;;;;;;21.80;10.90;;;;;;;1.93;57.17;100482.54;231342;1228;139009;-67
2022/02/28 02:41:38;;;;;;;20.50;11.00;;;;;;;1.91;57.06;100485.02;231288;1228;139060;-62
2022/02/28 02:46:48;;;;;;;21.70;11.60;;;;;;;1.90;56.97;100485.53;231324;1228;138998;-62
2022/02/28 02:51:57;;;;;;;19.70;10.80;;;;;;;1.89;57.14;100488.86;231381;1228;141912;-61
2022/02/28 02:57:02;;;;;;;19.90;10.90;;;;;;;1.86;57.03;100491.14;231419;1228;139585;-63
2022/02/28 03:02:05;;;;;;;20.90;10.90;;;;;;;1.85;57.09;100499.02;231305;1230;139619;-62
2022/02/28 03:07:19;;;;;;;19.70;10.80;;;;;;;1.82;56.86;100495.00;231336;1228;138933;-62
2022/02/28 03:12:23;;;;;;;18.50;9.60;;;;;;;1.80;57.00;100495.02;231256;1228;138836;-61
2022/02/28 03:17:28;;;;;;;22.40;10.60;;;;;;;1.79;56.98;100500.97;231251;1229;138761;-62
2022/02/28 03:22:31;;;;;;;17.30;9.40;;;;;;;1.74;56.84;100494.15;231347;1228;139795;-61
2022/02/28 03:27:36;;;;;;;20.60;10.90;;;;;;;1.68;56.71;100499.77;231370;1230;138825;-60
2022/02/28 03:32:39;;;;;;;21.60;10.10;;;;;;;1.62;56.68;100500.83;231305;1230;139672;-60
2022/02/28 03:37:42;;;;;;;19.20;10.80;;;;;;;1.59;57.02;100503.98;231206;1228;139611;-59
2022/02/28 03:42:46;;;;;;;20.90;9.80;;;;;;;1.55;56.87;100504.36;231294;1230;140048;-61
2022/02/28 03:47:50;;;;;;;19.10;9.50;;;;;;;1.53;56.97;100502.95;231247;1228;139302;-60
2022/02/28 03:53:11;;;;;;;34.00;17.40;;;;;;;1.60;57.70;100499.79;231329;1227;140782;-61
2022/02/28 03:58:16;;;;;;;18.80;9.80;;;;;;;1.73;57.21;100496.60;231284;1228;139466;-62
2022/02/28 04:03:19;;;;;;;18.30;10.10;;;;;;;1.67;56.98;100506.24;231410;1228;139277;-63
2022/02/28 04:08:23;;;;;;;47.40;25.80;;;;;;;1.64;57.35;100505.02;231290;1229;138830;-62
2022/02/28 04:13:26;;;;;;;26.30;11.10;;;;;;;1.69;57.22;100509.04;231298;1229;139212;-62
2022/02/28 04:18:29;;;;;;;16.80;9.00;;;;;;;1.60;56.82;100507.84;231267;1229;139121;-62
2022/02/28 04:23:53;;;;;;;20.70;9.10;;;;;;;1.52;56.69;100508.02;231323;1228;138792;-62
2022/02/28 04:28:57;;;;;;;561.80;413.80;;;;;;;1.44;56.82;100512.58;231294;1229;138757;-61
2022/02/28 04:33:59;;;;;;;61.90;32.90;;;;;;;1.47;57.39;100518.86;231447;1229;139340;-62
2022/02/28 04:39:03;;;;;;;22.10;11.20;;;;;;;1.46;56.85;100524.81;231306;1229;138971;-63
2022/02/28 04:44:06;;;;;;;17.90;9.30;;;;;;;1.42;56.92;100527.61;231359;1229;139502;-61
2022/02/28 04:49:10;;;;;;;18.70;8.50;;;;;;;1.37;56.73;100525.35;231349;1229;139831;-64
2022/02/28 04:54:29;;;;;;;16.40;8.90;;;;;;;1.33;57.24;100531.11;231344;1227;139222;-64
2022/02/28 04:59:33;;;;;;;14.10;7.70;;;;;;;1.27;57.11;100530.41;231334;1229;234180;-63
2022/02/28 05:04:38;;;;;;;15.90;8.20;;;;;;;1.24;57.12;100530.25;231437;1229;139004;-63
2022/02/28 05:09:41;;;;;;;14.10;7.70;;;;;;;1.24;57.15;100531.82;231222;1230;140045;-62
2022/02/28 05:14:45;;;;;;;17.30;7.90;;;;;;;1.26;57.39;100541.25;231310;1229;139379;-62
2022/02/28 05:19:48;;;;;;;16.80;7.50;;;;;;;1.29;57.50;100542.66;231271;1230;139057;-60
2022/02/28 05:24:51;;;;;;;18.10;7.60;;;;;;;1.32;57.48;100541.96;231212;1229;234828;-63
2022/02/28 05:29:55;;;;;;;16.60;7.60;;;;;;;1.34;57.29;100550.17;231296;1229;139018;-64
2022/02/28 05:34:58;;;;;;;16.00;7.20;;;;;;;1.32;57.30;100554.38;231296;1230;139294;-61
2022/02/28 05:40:17;;;;;;;14.70;7.10;;;;;;;1.30;57.31;100557.52;231290;1229;139162;-60
2022/02/28 05:45:20;;;;;;;13.70;6.90;;;;;;;1.25;57.33;100555.42;231406;1229;138713;-60
2022/02/28 05:50:29;;;;;;;13.20;6.20;;;;;;;1.23;57.30;100560.84;231386;1230;139588;-60
2022/02/28 05:55:34;;;;;;;16.80;7.60;;;;;;;1.21;57.39;100569.58;231287;1228;139693;-61
2022/02/28 06:00:37;;;;;;;15.60;7.60;;;;;;;1.20;57.41;100570.11;231286;1230;139128;-61
2022/02/28 06:05:40;;;;;;;15.20;7.20;;;;;;;1.21;57.63;100583.39;231252;1229;139473;-61
2022/02/28 06:10:43;;;;;;;17.10;7.30;;;;;;;1.20;57.48;100591.79;231259;1228;139154;-61
2022/02/28 06:15:47;;;;;;;13.70;7.30;;;;;;;1.17;57.36;100590.90;231444;1229;138863;-61
2022/02/28 06:20:52;;;;;;;13.50;7.60;;;;;;;1.18;57.43;100587.05;231316;1229;140861;-59
2022/02/28 06:25:56;;;;;;;15.90;7.40;;;;;;;1.20;57.41;100589.33;231234;1229;139322;-60
2022/02/28 06:30:59;;;;;;;14.30;7.50;;;;;;;1.22;57.61;100595.63;231246;1229;139047;-61
2022/02/28 06:36:03;;;;;;;13.80;6.80;;;;;;;1.24;57.59;100594.92;231293;1228;139154;-62
2022/02/28 06:41:06;;;;;;;15.50;7.10;;;;;;;1.28;57.64;100597.55;231272;1229;139088;-60
2022/02/28 06:46:09;;;;;;;14.00;6.80;;;;;;;1.31;57.64;100604.20;231447;1228;139027;-62
2022/02/28 06:51:14;;;;;;;14.80;7.20;;;;;;;1.35;57.94;100604.20;231422;1227;138940;-61
2022/02/28 06:56:17;;;;;;;13.50;6.80;;;;;;;1.42;57.92;100609.63;231391;1227;138760;-61
2022/02/28 07:01:20;;;;;;;14.70;6.30;;;;;;;1.50;57.91;100615.92;231334;1228;139677;-61
2022/02/28 07:06:31;;;;;;;15.10;5.80;;;;;;;1.57;57.51;100627.48;231282;1228;138700;-62
2022/02/28 07:11:35;;;;;;;11.90;5.80;;;;;;;1.64;57.84;100630.62;231277;1228;139122;-60
2022/02/28 07:16:38;;;;;;;11.70;6.00;;;;;;;1.71;57.65;100635.52;231294;1229;138790;-65
2022/02/28 07:21:41;;;;;;;10.80;6.20;;;;;;;1.78;57.54;100640.93;231406;1228;138848;-66
2022/02/28 07:26:44;;;;;;;10.30;5.50;;;;;;;1.85;57.76;100636.22;231261;1229;139295;-63
2022/02/28 07:31:47;;;;;;;9.90;5.20;;;;;;;1.94;57.41;100645.31;231268;1230;140073;-63
2022/02/28 07:36:50;;;;;;;12.10;5.30;;;;;;;2.02;57.43;100643.70;231294;1228;139276;-62
2022/02/28 07:41:56;;;;;;;9.70;5.00;;;;;;;2.17;57.87;100648.07;231251;1228;140582;-60
2022/02/28 07:46:59;;;;;;;10.60;5.00;;;;;;;2.31;57.45;100649.44;231250;1229;138856;-64
2022/02/28 07:52:02;;;;;;;10.30;5.00;;;;;;;2.42;57.26;100649.41;231426;1227;139137;-64
2022/02/28 07:57:05;;;;;;;9.90;4.60;;;;;;;2.47;57.00;100648.00;231251;1229;138974;-62
2022/02/28 08:02:09;;;;;;;10.80;5.00;;;;;;;2.52;56.97;100645.69;231246;1228;139622;-63
2022/02/28 08:07:12;;;;;;;8.40;4.00;;;;;;;2.56;56.94;100651.46;231239;1228;138846;-62
2022/02/28 08:12:15;;;;;;;9.50;4.80;;;;;;;2.59;56.75;100656.71;231255;1228;139689;-61
2022/02/28 08:17:18;;;;;;;8.40;4.50;;;;;;;2.61;56.67;100663.02;231220;1228;140063;-61
2022/02/28 08:22:21;;;;;;;11.60;4.70;;;;;;;2.65;56.52;100663.01;231224;1228;141259;-60
2022/02/28 08:27:25;;;;;;;7.30;3.90;;;;;;;2.67;56.45;100670.35;231265;1228;138847;-60
2022/02/28 08:32:29;;;;;;;8.50;4.60;;;;;;;2.73;56.50;100672.08;231252;1228;139750;-64
2022/02/28 08:37:32;;;;;;;8.60;4.60;;;;;;;2.78;56.37;100676.62;231262;1228;138496;-62
2022/02/28 08:42:35;;;;;;;9.20;4.50;;;;;;;2.84;56.30;100682.20;231234;1227;139737;-63
2022/02/28 08:47:38;;;;;;;13.30;4.90;;;;;;;2.95;56.50;100677.42;231249;1228;139100;-61
2022/02/28 08:52:41;;;;;;;6.70;3.60;;;;;;;3.04;56.23;100686.50;231307;1228;138921;-63
2022/02/28 08:57:44;;;;;;;7.10;3.90;;;;;;;3.06;56.00;100684.73;231404;1227;138688;-61
2022/02/28 09:02:47;;;;;;;8.40;4.20;;;;;;;3.14;55.93;100687.50;231419;1226;138889;-63
2022/02/28 09:07:51;;;;;;;9.60;4.40;;;;;;;3.19;55.92;100688.00;231308;1227;138837;-63
2022/02/28 09:12:54;;;;;;;10.10;4.70;;;;;;;3.28;56.07;100689.70;231286;1228;138724;-61
2022/02/28 09:17:57;;;;;;;8.80;4.50;;;;;;;3.41;56.01;100684.02;231153;1228;138896;-61
2022/02/28 09:23:03;;;;;;;;;;;;;;;3.50;55.97;100684.48;231307;1227;142071;-60
2022/02/28 09:28:06;;;;;;;7.90;3.90;;;;;;;3.58;55.97;100686.70;231470;1228;125898;-63
2022/02/28 09:33:10;;;;;;;7.60;4.10;;;;;;;3.69;55.97;100689.08;231291;1227;138997;-61
2022/02/28 09:38:13;;;;;;;7.40;3.30;;;;;;;3.83;55.84;100694.94;231327;1225;140831;-62
2022/02/28 09:43:17;;;;;;;9.20;3.70;;;;;;;3.89;55.47;100694.54;231301;1228;138843;-62
2022/02/28 09:48:39;;;;;;;5.70;3.30;;;;;;;4.00;55.27;100692.70;231286;1227;140326;-61
2022/02/28 09:54:12;;;;;;;7.10;3.80;;;;;;;4.13;55.19;100704.00;231085;1226;141081;-61
2022/02/28 09:59:36;;;;;;;5.80;3.60;;;;;;;4.19;54.96;100700.61;231178;1228;138923;-59
2022/02/28 10:04:43;;;;;;;675.60;379.90;;;;;;;4.29;54.72;100702.45;231375;1226;139321;-60
2022/02/28 10:10:01;;;;;;;43.50;22.50;;;;;;;4.42;54.95;100703.20;231329;1228;139566;-60
2022/02/28 10:15:10;;;;;;;12.80;5.60;;;;;;;4.52;54.50;100698.88;231200;1227;140231;-60
2022/02/28 10:20:18;;;;;;;9.30;3.40;;;;;;;4.54;53.98;100705.00;231267;1227;139802;-59
2022/02/28 10:25:31;;;;;;;5.00;3.10;;;;;;;4.55;53.68;100697.09;231271;1227;138773;-60
2022/02/28 10:30:50;;;;;;;6.90;3.30;;;;;;;4.74;54.02;100687.73;231114;1228;138624;-60
2022/02/28 10:36:21;;;;;;;8.10;3.30;;;;;;;4.99;53.67;100684.27;231259;1227;139048;-60
2022/02/28 10:41:36;;;;;;;7.50;2.60;;;;;;;5.17;53.61;100689.84;231300;1227;138250;-60
2022/02/28 10:46:44;;;;;;;335.50;188.50;;;;;;;5.28;52.91;100690.91;231209;1227;138791;-64
2022/02/28 10:51:47;;;;;;;21.00;9.20;;;;;;;5.18;52.16;100695.45;231336;1228;141402;-59
2022/02/28 10:56:54;;;;;;;7.90;4.20;;;;;;;5.00;51.82;100700.95;231238;1227;139691;-60
2022/02/28 11:01:57;;;;;;;6.30;3.20;;;;;;;4.87;51.63;100704.46;231383;1228;138737;-61
2022/02/28 11:07:02;;;;;;;5.50;2.80;;;;;;;4.78;51.56;100705.09;231320;1227;141110;-61
2022/02/28 11:12:31;;;;;;;4.60;2.30;;;;;;;4.90;51.84;100701.08;231389;1227;139025;-60
2022/02/28 11:17:37;;;;;;;5.00;2.60;;;;;;;5.18;51.83;100702.31;231231;1227;138873;-61
2022/02/28 11:22:43;;;;;;;5.30;2.40;;;;;;;5.26;51.26;100706.08;231264;1228;139286;-60
2022/02/28 11:27:49;;;;;;;5.20;3.00;;;;;;;5.26;51.12;100707.14;231353;1227;138575;-60
2022/02/28 11:33:10;;;;;;;4.40;2.30;;;;;;;5.28;51.15;100713.45;231279;1227;138795;-62
2022/02/28 11:38:15;;;;;;;4.60;2.30;;;;;;;5.29;51.04;100708.14;231286;1227;139338;-62
2022/02/28 11:43:26;;;;;;;7.10;2.60;;;;;;;5.29;50.95;100709.55;231269;1227;139108;-61
2022/02/28 11:48:38;;;;;;;4.50;2.20;;;;;;;5.28;50.80;100706.77;231256;1227;139093;-61
2022/02/28 11:53:44;;;;;;;4.90;2.40;;;;;;;5.45;50.79;100706.35;231353;1226;139682;-62
2022/02/28 11:58:58;;;;;;;4.10;2.30;;;;;;;5.76;50.77;100706.06;231350;1227;138740;-62
2022/02/28 12:04:10;;;;;;;3.50;1.90;;;;;;;5.97;50.58;100710.88;231414;1227;138968;-64
2022/02/28 12:09:41;;;;;;;4.50;2.30;;;;;;;6.01;50.30;100719.45;231323;1227;139174;-65
2022/02/28 12:14:56;;;;;;;14.10;6.90;;;;;;;5.96;50.32;100729.40;231255;1228;139884;-63
2022/02/28 12:20:14;;;;;;;6.70;3.20;;;;;;;5.95;50.18;100731.17;231260;1227;140063;-61
2022/02/28 12:25:45;;;;;;;5.50;3.20;;;;;;;6.05;50.51;100730.63;231293;1227;138664;-61
2022/02/28 12:31:01;;;;;;;7.10;3.00;;;;;;;6.02;50.09;100733.16;231295;1228;138789;-61
2022/02/28 12:36:29;;;;;;;5.50;2.70;;;;;;;5.90;50.18;100738.79;231275;1227;138804;-62
2022/02/28 12:41:39;;;;;;;6.70;2.80;;;;;;;5.72;49.90;100748.55;231289;1227;139112;-60
2022/02/28 12:46:47;;;;;;;8.40;3.00;;;;;;;5.61;50.17;100747.13;231215;1227;139416;-61
2022/02/28 12:51:52;;;;;;;5.90;3.40;;;;;;;5.58;50.31;100754.57;231331;1228;138909;-60
2022/02/28 12:56:58;;;;;;;4.80;2.60;;;;;;;5.55;50.37;100753.90;231123;1228;139171;-61
2022/02/28 13:02:02;;;;;;;4.90;3.00;;;;;;;5.57;50.38;100754.58;231360;1227;141647;-62
2022/02/28 13:07:13;;;;;;;4.70;2.60;;;;;;;5.72;50.49;100754.36;231156;1228;140970;-60
2022/02/28 13:12:25;;;;;;;5.40;2.90;;;;;;;5.73;50.42;100756.30;231278;1228;140826;-61
2022/02/28 13:17:28;;;;;;;6.70;3.40;;;;;;;5.66;50.13;100756.02;231184;1228;138846;-63
2022/02/28 13:22:31;;;;;;;8.00;3.80;;;;;;;5.54;50.16;100759.38;231255;1228;139090;-61
2022/02/28 13:27:36;;;;;;;8.90;3.50;;;;;;;5.50;50.41;100753.98;231374;1228;138620;-61
2022/02/28 13:32:39;;;;;;;5.40;3.10;;;;;;;5.42;50.29;100757.95;231276;1228;139125;-60
2022/02/28 13:37:42;;;;;;;4.80;3.00;;;;;;;5.34;50.25;100761.05;231235;1227;138856;-63
2022/02/28 13:42:46;;;;;;;4.80;3.00;;;;;;;5.31;50.46;100764.61;231188;1228;139427;-62
2022/02/28 13:47:50;;;;;;;6.70;3.20;;;;;;;5.40;50.65;100762.73;230998;1228;138965;-60
2022/02/28 13:53:02;;;;;;;7.50;4.50;;;;;;;5.45;50.65;100763.54;231252;1227;138953;-61
2022/02/28 13:58:07;;;;;;;5.90;3.00;;;;;;;5.47;50.73;100762.28;231402;1227;138856;-62
2022/02/28 14:03:15;;;;;;;6.50;2.80;;;;;;;5.45;50.39;100766.91;231258;1227;138848;-62
2022/02/28 14:08:26;;;;;;;5.80;2.50;;;;;;;5.46;50.33;100762.48;231206;1227;139615;-64
2022/02/28 14:13:39;;;;;;;5.80;3.00;;;;;;;5.46;50.37;100757.21;231270;1226;139194;-62
2022/02/28 14:19:15;;;;;;;5.80;2.80;;;;;;;5.43;50.32;100757.23;231235;1227;141023;-62
2022/02/28 14:24:55;;;;;;;7.70;3.00;;;;;;;5.42;50.32;100761.82;231210;1227;139128;-61
2022/02/28 14:30:16;;;;;;;4.90;2.70;;;;;;;5.46;50.20;100766.16;231224;1227;139882;-61
2022/02/28 14:35:24;;;;;;;5.00;2.60;;;;;;;5.47;49.94;100772.50;231270;1227;138881;-61
2022/02/28 14:40:31;;;;;;;;;;;;;;;5.44;49.85;100777.12;231313;1227;138973;-62
2022/02/28 14:45:35;;;;;;;6.50;2.80;;;;;;;5.43;50.06;100781.19;231405;1227;125111;-61
2022/02/28 14:50:40;;;;;;;5.20;2.80;;;;;;;5.39;49.86;100787.73;231287;1227;139651;-60
2022/02/28 14:55:44;;;;;;;6.80;2.70;;;;;;;5.35;49.74;100787.26;231280;1227;139522;-62
2022/02/28 15:00:47;;;;;;;9.70;3.80;;;;;;;5.34;49.99;100789.40;231276;1227;141259;-61
2022/02/28 15:05:50;;;;;;;7.10;3.50;;;;;;;5.33;50.00;100792.75;231206;1226;139658;-65
2022/02/28 15:10:53;;;;;;;9.20;3.40;;;;;;;5.29;50.12;100794.56;231248;1228;139472;-62
2022/02/28 15:15:57;;;;;;;5.80;3.10;;;;;;;5.21;49.86;100794.99;231356;1228;138474;-61
2022/02/28 15:21:00;;;;;;;7.00;3.60;;;;;;;5.16;49.93;100795.94;231092;1228;138689;-63
2022/02/28 15:26:03;;;;;;;6.20;3.10;;;;;;;5.14;50.13;100796.49;231296;1227;138789;-62
2022/02/28 15:31:06;;;;;;;6.60;4.20;;;;;;;5.12;49.91;100801.42;231172;1226;142092;-61
2022/02/28 15:36:09;;;;;;;9.80;3.70;;;;;;;5.11;49.99;100804.79;231139;1228;139111;-61
2022/02/28 15:41:13;;;;;;;67.80;33.00;;;;;;;5.13;50.34;100807.06;231223;1228;139118;-60
2022/02/28 15:46:16;;;;;;;12.60;5.80;;;;;;;5.21;50.26;100809.43;231311;1228;138782;-59
2022/02/28 15:51:19;;;;;;;10.20;4.90;;;;;;;5.20;50.23;100812.27;231176;1227;139031;-60
2022/02/28 15:56:23;;;;;;;7.80;4.30;;;;;;;5.17;50.16;100813.35;231381;1227;139444;-60
2022/02/28 16:01:27;;;;;;;9.40;4.30;;;;;;;5.12;50.20;100816.03;231197;1228;138796;-60
2022/02/28 16:06:31;;;;;;;11.10;3.50;;;;;;;5.09;50.26;100816.24;231197;1228;139201;-60
2022/02/28 16:11:34;;;;;;;9.70;5.00;;;;;;;5.05;50.54;100820.16;231205;1228;138922;-59
2022/02/28 16:16:37;;;;;;;10.20;5.20;;;;;;;4.99;50.51;100822.16;231157;1228;138806;-61
2022/02/28 16:21:41;;;;;;;99.20;50.50;;;;;;;5.15;52.90;100831.99;231345;1228;139892;-61
2022/02/28 16:26:46;;;;;;;18.50;7.70;;;;;;;6.57;53.33;100830.95;231078;1228;139021;-61
2022/02/28 16:31:49;;;;;;;16.90;7.20;;;;;;;6.44;50.49;100839.29;231289;1228;139243;-60
2022/02/28 16:36:53;;;;;;;19.60;7.60;;;;;;;6.00;49.76;100842.23;231216;1228;139180;-60
2022/02/28 16:41:56;;;;;;;21.50;7.10;;;;;;;5.61;49.82;100849.42;231195;1227;138888;-62
2022/02/28 16:46:59;;;;;;;15.40;7.80;;;;;;;5.28;49.94;100855.27;231199;1228;139639;-64
2022/02/28 16:52:03;;;;;;;18.80;8.60;;;;;;;5.00;50.20;100858.55;231224;1228;139207;-63
2022/02/28 16:57:06;;;;;;;19.30;9.30;;;;;;;4.80;50.49;100863.15;231169;1228;139026;-62
2022/02/28 17:02:09;;;;;;;19.80;9.70;;;;;;;4.67;50.81;100871.53;231201;1228;139139;-62
2022/02/28 17:07:12;;;;;;;71.00;43.80;;;;;;;4.54;50.99;100878.49;231167;1228;139339;-61
2022/02/28 17:12:16;;;;;;;29.60;15.30;;;;;;;4.51;51.40;100873.59;231142;1228;139526;-63
2022/02/28 17:17:19;;;;;;;21.00;10.60;;;;;;;4.47;51.50;100882.23;231128;1228;140274;-61
2022/02/28 17:22:22;;;;;;;22.20;10.40;;;;;;;4.36;51.47;100884.77;231173;1228;139462;-64
2022/02/28 17:27:25;;;;;;;21.60;9.90;;;;;;;4.28;51.63;100892.38;231317;1228;139648;-62
2022/02/28 17:32:29;;;;;;;21.30;9.60;;;;;;;4.24;51.87;100896.27;231128;1228;140030;-60
2022/02/28 17:37:37;;;;;;;34.30;15.70;;;;;;;5.27;56.71;100895.47;231280;1228;139815;-61
2022/02/28 17:42:40;;;;;;;24.80;12.30;;;;;;;6.25;53.09;100900.56;231165;1228;139734;-61
2022/02/28 17:47:43;;;;;;;28.20;12.90;;;;;;;5.92;51.42;100903.10;231239;1228;139411;-61
2022/02/28 17:52:50;;;;;;;;;;;;;;;5.53;51.32;100907.61;231274;1228;139687;-61
2022/02/28 17:57:53;;;;;;;30.50;14.50;;;;;;;5.18;51.27;100916.09;231364;1228;125151;-63
2022/02/28 18:03:02;;;;;;;28.50;14.30;;;;;;;4.88;51.54;100917.23;231270;1229;139000;-60
2022/02/28 18:08:05;;;;;;;27.90;13.30;;;;;;;4.69;51.79;100918.09;231312;1228;138966;-62
2022/02/28 18:13:08;;;;;;;26.60;14.70;;;;;;;4.57;51.92;100922.58;231218;1228;139697;-65
2022/02/28 18:18:11;;;;;;;27.70;14.70;;;;;;;4.49;52.07;100928.43;231215;1228;140293;-66
2022/02/28 18:23:14;;;;;;;24.60;14.00;;;;;;;4.41;52.34;100927.79;231137;1228;141371;-64
2022/02/28 18:28:18;;;;;;;24.40;12.70;;;;;;;4.35;52.53;100926.05;231275;1230;139793;-65
2022/02/28 18:33:21;;;;;;;7.40;3.70;;;;;;;4.30;52.46;100923.98;231213;1228;139264;-66
2022/02/28 18:38:24;;;;;;;16.70;8.30;;;;;;;6.62;61.03;100917.01;231362;1228;138781;-62
2022/02/28 18:43:28;;;;;;;17.80;8.80;;;;;;;9.72;58.25;100902.63;231187;1228;138969;-62
2022/02/28 18:48:32;;;;;;;22.10;8.80;;;;;;;11.28;54.44;100897.42;231212;1229;140333;-61
2022/02/28 18:53:36;;;;;;;20.70;9.60;;;;;;;12.10;52.68;100895.14;231233;1229;139696;-62
2022/02/28 18:58:40;;;;;;;27.90;11.70;;;;;;;12.55;50.59;100904.24;231224;1228;139837;-61
2022/02/28 19:03:44;;;;;;;24.90;12.70;;;;;;;12.43;48.97;100902.77;231312;1228;141147;-64
2022/02/28 19:08:47;;;;;;;24.60;13.20;;;;;;;11.18;45.46;100911.41;231126;1229;139152;-63
2022/02/28 19:13:51;;;;;;;24.20;13.10;;;;;;;9.63;44.92;100913.20;231211;1227;139592;-65
2022/02/28 19:18:54;;;;;;;26.80;13.30;;;;;;;8.26;45.26;100919.64;231249;1228;139234;-64
2022/02/28 19:23:57;;;;;;;22.50;12.50;;;;;;;7.19;45.84;100927.62;231253;1228;139242;-63
2022/02/28 19:29:00;;;;;;;23.80;13.10;;;;;;;6.35;46.69;100928.96;231697;1228;139368;-64
2022/02/28 19:34:04;;;;;;;41.60;20.80;;;;;;;5.74;47.66;100930.62;231819;1228;140401;-64
2022/02/28 19:39:08;;;;;;;32.10;15.70;;;;;;;5.29;48.33;100929.34;231263;1228;139289;-62
2022/02/28 19:44:12;;;;;;;27.70;14.10;;;;;;;4.86;48.85;100935.02;231242;1228;139482;-64
2022/02/28 19:49:17;;;;;;;27.30;13.40;;;;;;;4.51;49.25;100938.79;231239;1228;139123;-63
2022/02/28 19:54:21;;;;;;;30.10;15.00;;;;;;;4.17;49.75;100932.14;231217;1228;139232;-63
2022/02/28 19:59:24;;;;;;;25.70;13.80;;;;;;;3.84;50.19;100931.94;231182;1228;139726;-62
2022/02/28 20:04:29;;;;;;;29.50;14.80;;;;;;;3.60;50.85;100933.95;231368;1228;140190;-64
2022/02/28 20:09:32;;;;;;;31.80;14.70;;;;;;;3.45;51.11;100933.30;231295;1228;139880;-63
2022/02/28 20:14:35;;;;;;;29.00;14.60;;;;;;;3.27;51.37;100933.52;231146;1229;138945;-62
2022/02/28 20:19:38;;;;;;;364.20;239.90;;;;;;;3.09;51.77;100931.44;231163;1227;139465;-61
2022/02/28 20:24:41;;;;;;;46.00;23.20;;;;;;;3.04;52.33;100936.00;231115;1227;139326;-62
2022/02/28 20:29:44;;;;;;;27.40;15.10;;;;;;;3.01;52.44;100938.63;231200;1229;139694;-64
2022/02/28 20:34:50;;;;;;;35.90;14.30;;;;;;;2.86;52.77;100938.81;231067;1230;139430;-62
2022/02/28 20:39:53;;;;;;;28.90;15.10;;;;;;;2.72;52.92;100932.32;231304;1229;139799;-62
2022/02/28 20:44:56;;;;;;;36.00;14.80;;;;;;;2.65;52.92;100928.45;231183;1228;139082;-63
2022/02/28 20:49:59;;;;;;;26.80;14.60;;;;;;;2.56;53.52;100922.15;231202;1228;139420;-63
2022/02/28 20:55:02;;;;;;;30.60;15.00;;;;;;;2.52;53.82;100922.30;231286;1227;139168;-63
2022/02/28 21:00:06;;;;;;;35.60;16.90;;;;;;;2.52;53.91;100924.61;231176;1228;140333;-63
2022/02/28 21:05:10;;;;;;;35.00;18.20;;;;;;;2.53;54.17;100924.77;231172;1228;139756;-64
2022/02/28 21:10:13;;;;;;;33.90;17.60;;;;;;;2.54;54.43;100926.34;231358;1228;139568;-63
2022/02/28 21:15:16;;;;;;;952.60;507.80;;;;;;;2.53;54.59;100922.48;231187;1228;139616;-63
2022/02/28 21:20:19;;;;;;;143.10;70.70;;;;;;;2.68;55.11;100920.39;231213;1228;138952;-63
2022/02/28 21:25:22;;;;;;;51.40;26.60;;;;;;;2.76;54.58;100921.98;231173;1229;139533;-63
2022/02/28 21:30:26;;;;;;;40.70;20.80;;;;;;;2.70;54.46;100915.16;231174;1229;138753;-62
2022/02/28 21:35:29;;;;;;;41.40;19.00;;;;;;;2.64;54.63;100910.41;231028;1229;140665;-63
2022/02/28 21:40:34;;;;;;;36.40;18.20;;;;;;;2.55;54.55;100913.03;231195;1228;139254;-63
2022/02/28 21:45:37;;;;;;;36.80;17.90;;;;;;;2.45;54.68;100914.95;231261;1228;139436;-64
2022/02/28 21:50:40;;;;;;;37.30;18.90;;;;;;;2.36;54.84;100916.16;231165;1229;139563;-63
2022/02/28 21:55:44;;;;;;;32.70;17.30;;;;;;;2.27;54.75;100915.62;231182;1229;139071;-64
2022/02/28 22:00:47;;;;;;;35.20;17.00;;;;;;;2.22;55.08;100915.08;231213;1228;139431;-64
2022/02/28 22:05:50;;;;;;;35.00;16.90;;;;;;;2.20;55.34;100918.75;231247;1228;138894;-64
2022/02/28 22:10:53;;;;;;;34.30;16.40;;;;;;;2.18;55.39;100910.34;231153;1228;139093;-64
2022/02/28 22:15:56;;;;;;;26.30;14.40;;;;;;;2.18;55.44;100910.52;231287;1226;139325;-64
2022/02/28 22:21:00;;;;;;;387.30;256.60;;;;;;;2.24;55.77;100910.00;231231;1228;138926;-61
2022/02/28 22:26:03;;;;;;;91.70;36.50;;;;;;;2.49;56.14;100915.30;231223;1227;140403;-62
2022/02/28 22:31:11;;;;;;;37.40;18.00;;;;;;;2.60;55.60;100921.27;231167;1228;139600;-63
2022/02/28 22:36:15;;;;;;;35.00;16.10;;;;;;;2.55;55.35;100922.84;231172;1228;139140;-64
2022/02/28 22:41:18;;;;;;;44.30;24.30;;;;;;;2.54;55.98;100923.19;231212;1228;139127;-62
2022/02/28 22:46:22;;;;;;;33.80;17.70;;;;;;;2.72;55.97;100917.07;231295;1228;141039;-64
2022/02/28 22:51:26;;;;;;;38.50;18.60;;;;;;;2.73;55.42;100917.42;230888;1228;139391;-62
2022/02/28 22:56:29;;;;;;;38.00;18.00;;;;;;;2.57;55.01;100915.31;231213;1229;139243;-62
2022/02/28 23:01:38;;;;;;;39.00;18.40;;;;;;;2.46;55.44;100904.96;230994;1228;138699;-62
2022/02/28 23:06:49;;;;;;;39.10;18.20;;;;;;;2.38;55.41;100902.50;231250;1228;139104;-63
2022/02/28 23:22:36;;;;;;;40.60;19.90;;;;;;;2.11;55.44;100904.91;231281;1228;142403;-62